TimeMST,TemperatureF,Dew PointF,Humidity,Sea Level PressureIn,VisibilityMPH,Wind Direction,Wind SpeedMPH,Gust SpeedMPH,PrecipitationIn,Events,Conditions,WindDirDegrees,DateUTC
12:56 AM,-6.9,-11.9,79,30.66,10.0,East,5.8,-,N/A,,Clear,90,2013-01-18 07:56:00
1:56 AM,-4.9,-8.9,83,30.66,10.0,Calm,Calm,-,N/A,,Clear,0,2013-01-18 08:56:00
2:12 AM,3.2,-0.4,85,30.41,1.2,Calm,Calm,-,N/A,,Clear,0,2013-01-18 09:12:00
2:14 AM,3.2,-0.4,85,30.41,0.8,WSW,3.5,-,N/A,,Clear,250,2013-01-18 09:14:00
2:19 AM,-0.4,-4.0,85,30.40,0.2,SW,4.6,-,N/A,Fog,Light Freezing Fog,220,2013-01-18 09:19:00
2:36 AM,-0.4,-5.8,78,30.40,0.8,SE,4.6,-,N/A,,Haze,140,2013-01-18 09:36:00
2:46 AM,-0.4,-5.8,78,30.40,0.5,SE,4.6,-,N/A,Fog,Light Freezing Fog,140,2013-01-18 09:46:00
2:56 AM,-2.9,-6.9,83,30.65,0.2,East,4.6,-,N/A,Fog,Light Freezing Fog,100,2013-01-18 09:56:00
3:06 AM,-5.8,-9.4,84,30.40,0.8,East,3.5,-,N/A,,Mist,100,2013-01-18 10:06:00
3:17 AM,-4.0,-9.4,78,30.40,1.0,Calm,Calm,-,N/A,,Haze,0,2013-01-18 10:17:00
3:20 AM,-2.2,-7.6,78,30.39,1.5,ESE,3.5,-,N/A,,Haze,110,2013-01-18 10:20:00
3:24 AM,-2.2,-7.6,78,30.40,3.0,East,4.6,-,N/A,,Clear,100,2013-01-18 10:24:00
3:56 AM,-4.9,-9.9,79,30.64,10.0,NE,4.6,-,N/A,,Clear,50,2013-01-18 10:56:00
4:56 AM,4.1,0.1,84,30.58,10.0,NNE,6.9,-,N/A,,Clear,30,2013-01-18 11:56:00
5:56 AM,-0.9,-6.0,79,30.64,10.0,ESE,8.1,-,N/A,,Clear,120,2013-01-18 12:56:00
6:56 AM,-2.9,-6.9,83,30.69,10.0,Calm,Calm,-,N/A,,Clear,0,2013-01-18 13:56:00
7:56 AM,2.1,-1.8,83,30.65,10.0,SE,3.5,-,N/A,,Clear,140,2013-01-18 14:56:00
8:56 AM,-2.9,-6.9,83,30.69,10.0,East,4.6,-,N/A,,Clear,80,2013-01-18 15:56:00
9:56 AM,10.0,7.2,88,30.63,10.0,Calm,Calm,-,N/A,,Clear,0,2013-01-18 16:56:00
10:47 AM,10.4,6.8,85,30.37,1.8,Calm,Calm,-,N/A,,Clear,0,2013-01-18 17:47:00
10:56 AM,12.0,9.1,88,30.58,6.0,SE,3.5,-,N/A,,Clear,140,2013-01-18 17:56:00
11:56 AM,12.0,9.1,88,30.60,10.0,North,4.6,-,N/A,,Clear,350,2013-01-18 18:56:00
12:56 PM,12.0,9.1,88,30.61,10.0,Calm,Calm,-,N/A,,Clear,0,2013-01-18 19:56:00
1:56 PM,16.2,9.1,74,30.57,10.0,Calm,Calm,-,N/A,,Clear,0,2013-01-18 20:56:00
2:56 PM,19.0,10.0,68,30.53,10.0,Calm,Calm,-,N/A,,Clear,0,2013-01-18 21:56:00
3:56 PM,15.1,8.1,74,30.56,10.0,Calm,Calm,-,N/A,,Clear,0,2013-01-18 22:56:00
4:56 PM,9.1,5.0,83,30.55,10.0,Calm,Calm,-,N/A,,Clear,0,2013-01-18 23:56:00
5:56 PM,5.0,1.0,84,30.61,10.0,Calm,Calm,-,N/A,,Clear,0,2013-01-19 00:56:00
6:56 PM,6.1,3.0,87,30.59,10.0,SSE,4.6,-,N/A,,Clear,150,2013-01-19 01:56:00
7:56 PM,-0.9,-4.9,83,30.62,10.0,North,5.8,-,N/A,,Clear,10,2013-01-19 02:56:00
8:56 PM,0.1,-4.0,83,30.64,10.0,SE,3.5,-,N/A,,Clear,140,2013-01-19 03:56:00
9:56 PM,-4.9,-8.9,83,30.60,10.0,North,3.5,-,N/A,,Clear,350,2013-01-19 04:56:00
10:56 PM,0.1,-4.0,83,30.59,10.0,SE,4.6,-,N/A,,Clear,130,2013-01-19 05:56:00
11:56 PM,1.0,-2.9,83,30.57,10.0,SE,4.6,-,N/A,,Clear,140,2013-01-19 06:56:00